This is the latest recevied weather packets stored in our database for station/object AK6OS. If no packets are shown the sender has not sent any weather packets the latest 10 day(s).
| Time | Temp. | Humidity | Pressure | Rain* | Wind** | Luminosity | Snow |
|---|---|---|---|---|---|---|---|
| 1777469117 | 6.67° C | 95% | 1019.5 hPa | 0 mm | - | 10 W/m² | - |
| 1777464316 | 7.78° C | 94% | 1019.2 hPa | 0 mm | - | 0 W/m² | - |
| 1777460716 | 7.78° C | 94% | 1019.4 hPa | 0 mm | - | 0 W/m² | - |
| 1777460116 | 7.78° C | 94% | 1019.3 hPa | 0 mm | - | 0 W/m² | - |
| 1777457117 | 8.33° C | 92% | 1018.8 hPa | 0 mm | - | 0 W/m² | - |
| 1777456518 | 8.33° C | 93% | 1018.9 hPa | 0 mm | - | 0 W/m² | - |
| 1777454138 | 8.89° C | 92% | 1019 hPa | 0 mm | - | 0 W/m² | - |
| 1777443918 | 11.67° C | 88% | 1020 hPa | 0 mm | - | 0 W/m² | - |
| 1777442115 | 12.22° C | 87% | 1019.8 hPa | 0 mm | - | 0 W/m² | - |
| 1777439118 | 13.33° C | 84% | 1019.8 hPa | 0 mm | - | 0 W/m² | - |
| 1777433138 | 15.56° C | 66% | 1019.2 hPa | 0 mm | - | 0 W/m² | - |
| 1777430116 | 17.78° C | 52% | 1018.5 hPa | 0 mm | - | 14 W/m² | - |
| 1777427117 | 20.56° C | 55% | 1018.1 hPa | 0 mm | - | 109 W/m² | - |
| 1777423518 | 21.67° C | 52% | 1018 hPa | 0 mm | - | 302 W/m² | - |
| 1777413318 | 22.22° C | 55% | 1018.6 hPa | 0 mm | - | 817 W/m² | - |
| 1777411518 | 22.22° C | 56% | 1018.5 hPa | 0 mm | - | 873 W/m² | - |
| 1777410938 | 22.22° C | 56% | 1018.6 hPa | 0 mm | - | 888 W/m² | - |
| 1777407319 | 21.11° C | 57% | 1018.9 hPa | 0 mm | - | 942 W/m² | - |
| 1777404317 | 20° C | 61% | 1020 hPa | 0 mm | - | 933 W/m² | - |
| 1777403717 | 19.44° C | 64% | 1020.2 hPa | 0 mm | - | 925 W/m² | - |
| 1777403117 | 19.44° C | 63% | 1020.2 hPa | 0 mm | - | 915 W/m² | - |
| 1777401319 | 18.89° C | 64% | 1020.4 hPa | 0 mm | - | 863 W/m² | - |
| 1777388115 | 11.67° C | 85% | 1020.6 hPa | 0 mm | - | 225 W/m² | - |
| 1777386915 | 8.33° C | 93% | 1020.4 hPa | 0 mm | - | 159 W/m² | - |
| 1777383317 | 5.56° C | 95% | 1019.8 hPa | 0 mm | - | 17 W/m² | - |
* Rain latest hour (hover to see other rain measurements)
** Current wind speed in m/s (hover to see current wind gust speed)